createdAt,value
2019-06-27T00:01:55.887Z,22.33
2019-06-27T00:05:04.122Z,22.23
2019-06-27T00:08:10.244Z,22.49
2019-06-27T00:11:16.358Z,22.02
2019-06-27T00:14:22.704Z,21.91
2019-06-27T00:17:28.969Z,21.78
2019-06-27T00:20:35.570Z,21.69
2019-06-27T00:23:42.323Z,22.07
2019-06-27T00:26:57.179Z,22.42
2019-06-27T00:29:56.147Z,22.28
2019-06-27T00:33:02.608Z,22.15
2019-06-27T00:36:08.741Z,22.16
2019-06-27T00:39:14.815Z,21.85
2019-06-27T00:42:21.139Z,21.94
2019-06-27T00:45:27.725Z,22.30
2019-06-27T00:48:34.062Z,22.61
2019-06-27T00:51:40.176Z,22.38
2019-06-27T00:54:46.230Z,22.54
2019-06-27T00:57:52.337Z,21.82
2019-06-27T01:00:58.602Z,22.29
2019-06-27T01:04:04.970Z,22.61
2019-06-27T01:07:11.001Z,22.47
2019-06-27T01:10:18.467Z,22.18
2019-06-27T01:13:24.516Z,21.86
2019-06-27T01:16:30.711Z,21.73
2019-06-27T01:19:36.765Z,21.69
2019-06-27T01:22:43.454Z,21.70
2019-06-27T01:25:52.531Z,21.71
2019-06-27T01:28:59.270Z,21.77
2019-06-27T01:32:06.574Z,21.73
2019-06-27T01:35:14.271Z,21.61
2019-06-27T01:38:20.701Z,21.51
2019-06-27T01:41:27.539Z,21.43
2019-06-27T01:44:42.351Z,21.56
2019-06-27T01:47:48.912Z,21.52
2019-06-27T01:50:55.048Z,21.30
2019-06-27T01:54:01.607Z,21.52
2019-06-27T01:57:07.895Z,21.61
2019-06-27T02:00:14.883Z,21.59
2019-06-27T02:03:21.492Z,21.47
2019-06-27T02:06:27.883Z,21.59
2019-06-27T02:09:40.215Z,21.38
2019-06-27T02:12:46.681Z,21.51
2019-06-27T02:15:53.055Z,21.37
2019-06-27T02:18:59.510Z,21.20
2019-06-27T02:22:05.539Z,21.13
2019-06-27T02:25:12.874Z,21.28
2019-06-27T02:28:19.250Z,21.34
2019-06-27T02:31:25.587Z,21.26
2019-06-27T02:34:31.890Z,21.09
2019-06-27T02:37:40.262Z,21.06
2019-06-27T02:40:46.341Z,21.16
2019-06-27T02:43:52.394Z,21.47
2019-06-27T02:46:58.495Z,21.38
2019-06-27T02:50:04.789Z,21.11
2019-06-27T02:53:11.453Z,21.03
2019-06-27T02:56:17.510Z,20.86
2019-06-27T02:59:23.897Z,20.73
2019-06-27T03:02:30.365Z,21.04
2019-06-27T03:05:36.820Z,21.17
2019-06-27T03:08:42.946Z,21.46
2019-06-27T03:11:49.468Z,20.99
2019-06-27T03:14:55.864Z,20.65
2019-06-27T03:18:02.262Z,20.70
2019-06-27T03:21:08.989Z,20.48
2019-06-27T03:24:15.648Z,20.29
2019-06-27T03:27:22.280Z,20.03
2019-06-27T03:30:28.640Z,20.12
2019-06-27T03:33:34.972Z,20.34
2019-06-27T03:36:41.270Z,19.98
2019-06-27T03:39:47.864Z,20.11
2019-06-27T03:42:54.323Z,19.97
2019-06-27T03:46:03.692Z,19.75
2019-06-27T03:49:10.371Z,19.60
2019-06-27T03:52:16.717Z,19.71
2019-06-27T03:55:23.100Z,19.46
2019-06-27T03:58:29.424Z,19.50
2019-06-27T04:01:36.144Z,19.39
2019-06-27T04:04:42.804Z,19.44
2019-06-27T04:07:49.123Z,19.27
2019-06-27T04:10:55.627Z,19.40
2019-06-27T04:14:01.990Z,19.21
2019-06-27T04:17:08.454Z,19.40
2019-06-27T04:20:15.387Z,19.16
2019-06-27T04:23:21.708Z,19.12
2019-06-27T04:26:28.117Z,19.34
2019-06-27T04:29:35.118Z,19.01
2019-06-27T04:32:41.680Z,18.98
2019-06-27T04:35:56.045Z,18.90
2019-06-27T04:39:02.780Z,18.84
2019-06-27T04:42:09.430Z,18.77
2019-06-27T04:45:16.187Z,18.74
2019-06-27T04:48:22.598Z,18.84
2019-06-27T04:51:28.927Z,19.29
2019-06-27T04:54:35.312Z,18.96
2019-06-27T04:57:41.612Z,18.57
2019-06-27T05:00:47.984Z,18.83
2019-06-27T05:03:54.412Z,18.89
2019-06-27T05:07:00.726Z,18.64
2019-06-27T05:10:07.736Z,18.77
2019-06-27T05:13:14.070Z,18.68
2019-06-27T05:16:20.403Z,18.61
2019-06-27T05:19:27.203Z,18.54
2019-06-27T05:22:33.593Z,18.73
2019-06-27T05:25:39.919Z,19.01
2019-06-27T05:28:46.735Z,18.75
2019-06-27T05:31:53.317Z,18.18
2019-06-27T05:35:00.711Z,18.39
2019-06-27T05:38:07.102Z,18.75
2019-06-27T05:41:13.735Z,18.65
2019-06-27T05:44:20.080Z,18.58
2019-06-27T05:47:26.736Z,18.13
2019-06-27T05:50:33.122Z,18.57
2019-06-27T05:53:39.493Z,18.48
2019-06-27T05:56:45.995Z,18.10
2019-06-27T05:59:53.367Z,18.14
2019-06-27T06:03:00.028Z,18.33
2019-06-27T06:06:09.672Z,18.51
2019-06-27T06:09:16.274Z,18.56
2019-06-27T06:12:22.897Z,18.39
2019-06-27T06:16:18.409Z,18.76
2019-06-27T06:19:25.769Z,18.50
2019-06-27T06:22:33.225Z,18.49
2019-06-27T06:25:39.725Z,18.58
2019-06-27T06:28:46.279Z,18.23
2019-06-27T06:31:52.712Z,18.27
2019-06-27T06:34:59.397Z,18.45
2019-06-27T06:38:06.087Z,18.34
2019-06-27T06:41:12.434Z,18.54
2019-06-27T06:44:18.843Z,18.06
2019-06-27T06:47:25.478Z,18.55
2019-06-27T06:50:31.829Z,18.10
2019-06-27T06:53:38.272Z,18.11
2019-06-27T06:56:44.795Z,17.99
2019-06-27T06:59:51.113Z,18.29
2019-06-27T07:02:57.546Z,18.30
2019-06-27T07:06:04.113Z,18.03
2019-06-27T07:09:10.607Z,18.21
2019-06-27T07:12:17.272Z,18.07
2019-06-27T07:15:23.695Z,18.14
2019-06-27T07:18:30.176Z,17.89
2019-06-27T07:21:36.701Z,18.57
2019-06-27T07:24:43.008Z,18.79
2019-06-27T07:27:49.303Z,18.89
2019-06-27T07:30:55.652Z,18.37
2019-06-27T07:34:02.025Z,18.80
2019-06-27T07:37:08.626Z,18.77
2019-06-27T07:40:15.561Z,18.95
2019-06-27T07:43:21.990Z,19.02
2019-06-27T07:46:28.290Z,19.51
2019-06-27T07:49:34.689Z,18.67
2019-06-27T07:52:40.992Z,19.03
2019-06-27T07:55:47.328Z,19.43
2019-06-27T07:58:53.696Z,18.83
2019-06-27T08:02:00.035Z,19.33
2019-06-27T08:05:06.523Z,19.66
2019-06-27T08:08:14.007Z,19.77
2019-06-27T08:11:20.385Z,19.84
2019-06-27T08:14:27.667Z,19.61
2019-06-27T08:17:33.978Z,19.83
2019-06-27T08:20:40.313Z,19.76
2019-06-27T08:23:46.643Z,19.90
2019-06-27T08:26:52.953Z,20.03
2019-06-27T08:29:59.297Z,20.08
2019-06-27T08:33:05.774Z,20.40
2019-06-27T08:36:12.149Z,20.81
2019-06-27T08:39:18.720Z,20.23
2019-06-27T08:42:25.207Z,20.65
2019-06-27T08:45:31.596Z,20.80
2019-06-27T08:48:37.904Z,20.69
2019-06-27T08:51:44.287Z,20.83
2019-06-27T08:54:51.563Z,21.18
2019-06-27T08:57:57.893Z,21.71
2019-06-27T09:01:04.377Z,21.03
2019-06-27T09:04:10.934Z,20.80
2019-06-27T09:07:17.482Z,21.81
2019-06-27T09:10:24.267Z,22.15
2019-06-27T09:13:30.589Z,21.92
2019-06-27T09:16:37.180Z,21.70
2019-06-27T09:19:43.718Z,22.13
2019-06-27T09:22:51.037Z,21.95
2019-06-27T09:25:57.704Z,21.68
2019-06-27T09:29:04.087Z,21.59
2019-06-27T09:32:24.079Z,21.89
2019-06-27T09:35:18.672Z,21.81
2019-06-27T09:38:24.703Z,21.85
2019-06-27T09:41:31.170Z,21.41
2019-06-27T09:44:37.553Z,22.52
2019-06-27T09:47:44.361Z,22.52
2019-06-27T09:50:50.397Z,22.79
2019-06-27T09:53:56.891Z,22.70
2019-06-27T09:57:04.173Z,22.57
2019-06-27T10:00:12.577Z,22.81
2019-06-27T10:03:18.957Z,23.30
2019-06-27T10:06:26.328Z,23.11
2019-06-27T10:09:33.553Z,22.81
2019-06-27T10:12:42.832Z,23.22
2019-06-27T10:15:47.442Z,23.06
2019-06-27T10:18:55.034Z,22.94
2019-06-27T10:22:01.192Z,22.39
2019-06-27T10:25:07.557Z,22.93
2019-06-27T10:28:13.602Z,23.23
2019-06-27T10:31:20.618Z,23.58
2019-06-27T10:34:26.740Z,23.87
2019-06-27T10:37:33.017Z,23.33
2019-06-27T10:40:39.114Z,23.62
2019-06-27T10:43:45.622Z,24.36
2019-06-27T10:46:51.828Z,24.05
2019-06-27T10:49:58.856Z,24.14
2019-06-27T10:53:05.165Z,24.58
2019-06-27T10:56:11.225Z,24.50
2019-06-27T10:59:17.254Z,24.53
2019-06-27T11:02:23.360Z,24.31
2019-06-27T11:05:29.769Z,24.19
2019-06-27T11:08:35.817Z,24.69
2019-06-27T11:11:42.050Z,25.02
2019-06-27T11:14:58.582Z,24.70
2019-06-27T11:17:55.915Z,24.49
2019-06-27T11:21:02.177Z,24.97
2019-06-27T11:24:08.216Z,25.01
2019-06-27T11:27:14.302Z,24.95
2019-06-27T11:30:20.406Z,24.37
2019-06-27T11:33:32.785Z,24.93
2019-06-27T11:36:34.498Z,24.63
2019-06-27T11:39:40.705Z,25.05
2019-06-27T11:42:46.781Z,25.21
2019-06-27T11:45:53.504Z,25.29
2019-06-27T11:48:59.617Z,25.15
2019-06-27T11:52:05.750Z,25.18
2019-06-27T11:55:12.162Z,25.39
2019-06-27T11:58:18.308Z,25.25
2019-06-27T12:01:24.411Z,25.20
2019-06-27T12:04:30.435Z,24.89
2019-06-27T12:07:36.468Z,25.14
2019-06-27T12:10:43.871Z,25.21
2019-06-27T12:13:49.909Z,25.41
2019-06-27T12:16:56.219Z,25.85
2019-06-27T12:20:02.331Z,25.69
2019-06-27T12:23:08.715Z,25.44
2019-06-27T12:26:14.987Z,25.63
2019-06-27T12:29:21.034Z,25.91
2019-06-27T12:32:27.241Z,25.67
2019-06-27T12:35:33.302Z,25.86
2019-06-27T12:38:39.332Z,25.58
2019-06-27T12:41:46.927Z,25.64
2019-06-27T12:44:53.011Z,25.62
2019-06-27T12:48:06.425Z,25.96
2019-06-27T12:51:07.613Z,25.92
2019-06-27T12:54:13.779Z,25.61
2019-06-27T12:57:19.836Z,25.44
2019-06-27T13:00:27.270Z,25.96
2019-06-27T13:03:33.445Z,26.44
2019-06-27T13:06:39.601Z,26.27
2019-06-27T13:09:46.800Z,25.72
2019-06-27T13:12:52.860Z,25.54
2019-06-27T13:15:58.987Z,26.24
2019-06-27T13:19:05.044Z,25.91
2019-06-27T13:22:11.200Z,26.29
2019-06-27T13:25:17.349Z,26.01
2019-06-27T13:28:23.383Z,25.94
2019-06-27T13:31:29.499Z,25.99
2019-06-27T13:34:40.259Z,26.13
2019-06-27T13:37:44.139Z,26.55
2019-06-27T13:40:50.163Z,26.46
2019-06-27T13:43:56.207Z,26.36
2019-06-27T13:47:02.591Z,25.78
2019-06-27T13:50:09.284Z,25.78
2019-06-27T13:53:16.452Z,26.38
2019-06-27T13:56:22.497Z,26.19
2019-06-27T13:59:28.909Z,26.07
2019-06-27T14:02:35.049Z,25.83
2019-06-27T14:05:41.758Z,26.20
2019-06-27T14:08:49.154Z,26.65
2019-06-27T14:11:55.707Z,26.07
2019-06-27T14:15:01.906Z,26.17
2019-06-27T14:18:08.244Z,26.36
2019-06-27T14:21:14.419Z,26.11
2019-06-27T14:24:20.668Z,26.16
2019-06-27T14:27:26.901Z,26.39
2019-06-27T14:30:33.026Z,26.44
2019-06-27T14:33:39.290Z,26.27
2019-06-27T14:36:45.392Z,26.24
2019-06-27T14:39:51.438Z,26.16
2019-06-27T14:42:57.478Z,26.62
2019-06-27T14:46:03.536Z,26.32
2019-06-27T14:49:09.597Z,26.34
2019-06-27T14:52:16.313Z,26.18
2019-06-27T14:55:22.997Z,26.35
2019-06-27T14:58:29.061Z,26.47
2019-06-27T15:01:35.147Z,25.86
2019-06-27T15:04:41.222Z,26.32
2019-06-27T15:07:47.755Z,26.53
2019-06-27T15:10:54.176Z,26.19
2019-06-27T15:14:00.253Z,26.27
2019-06-27T15:17:06.434Z,26.53
2019-06-27T15:20:12.857Z,26.27
2019-06-27T15:23:20.571Z,26.36
2019-06-27T15:26:26.615Z,26.04
2019-06-27T15:29:32.732Z,26.20
2019-06-27T15:32:38.946Z,26.12
2019-06-27T15:35:52.513Z,26.37
2019-06-27T15:38:54.213Z,26.07
2019-06-27T15:42:01.564Z,26.20
2019-06-27T15:45:09.348Z,26.00
2019-06-27T15:48:15.399Z,25.96
2019-06-27T15:51:21.491Z,26.23
2019-06-27T15:54:27.928Z,26.24
2019-06-27T15:57:36.493Z,26.20
2019-06-27T16:00:42.829Z,26.60
2019-06-27T16:03:50.845Z,26.58
2019-06-27T16:06:56.924Z,26.50
2019-06-27T16:10:04.312Z,26.16
2019-06-27T16:13:10.417Z,26.71
2019-06-27T16:16:16.941Z,26.08
2019-06-27T16:19:23.220Z,25.64
2019-06-27T16:22:29.317Z,26.18
2019-06-27T16:25:35.571Z,26.07
2019-06-27T16:28:41.592Z,26.02
2019-06-27T16:31:47.714Z,25.76
2019-06-27T16:34:53.896Z,25.66
2019-06-27T16:38:00.154Z,25.94
2019-06-27T16:41:06.939Z,25.60
2019-06-27T16:44:12.979Z,25.37
2019-06-27T16:47:19.138Z,25.75
2019-06-27T16:50:25.203Z,25.61
2019-06-27T16:53:31.769Z,25.80
2019-06-27T16:56:38.194Z,25.46
2019-06-27T16:59:44.387Z,25.46
2019-06-27T17:02:50.428Z,25.53
2019-06-27T17:05:57.427Z,25.00
2019-06-27T17:09:05.279Z,24.95
2019-06-27T17:12:11.341Z,25.03
2019-06-27T17:15:18.118Z,24.70
2019-06-27T17:18:24.150Z,24.82
2019-06-27T17:21:30.289Z,24.86
2019-06-27T17:24:37.869Z,24.74
2019-06-27T17:27:43.940Z,24.23
2019-06-27T17:30:49.967Z,24.54
2019-06-27T17:33:57.755Z,24.85
2019-06-27T17:37:03.810Z,24.52
2019-06-27T17:40:10.767Z,24.39
2019-06-27T17:43:16.804Z,24.62
2019-06-27T17:46:22.909Z,24.36
2019-06-27T17:49:29.184Z,23.95
2019-06-27T17:52:36.003Z,24.14
2019-06-27T17:55:42.029Z,23.86
2019-06-27T17:58:48.576Z,24.02
2019-06-27T18:01:54.766Z,23.73
2019-06-27T18:05:00.826Z,23.71
2019-06-27T18:08:06.997Z,23.76
2019-06-27T18:11:13.313Z,23.95
2019-06-27T18:14:19.363Z,23.56
2019-06-27T18:17:33.427Z,23.46
2019-06-27T18:20:33.357Z,23.22
2019-06-27T18:23:39.436Z,23.57
2019-06-27T18:26:45.871Z,23.45
2019-06-27T18:29:51.990Z,22.88
2019-06-27T18:32:58.020Z,23.16
2019-06-27T18:36:04.222Z,22.76
2019-06-27T18:39:10.457Z,22.93
2019-06-27T18:42:16.568Z,23.03
2019-06-27T18:45:24.229Z,22.25
2019-06-27T18:48:31.121Z,22.47
2019-06-27T18:51:37.161Z,22.28
2019-06-27T18:54:43.243Z,22.73
2019-06-27T18:57:49.804Z,22.20
2019-06-27T19:00:56.729Z,22.10
2019-06-27T19:04:03.040Z,21.57
2019-06-27T19:07:09.100Z,21.64
2019-06-27T19:10:17.334Z,22.18
2019-06-27T19:13:26.319Z,21.85
2019-06-27T19:16:32.661Z,21.60
2019-06-27T19:19:41.095Z,21.72
2019-06-27T19:23:05.976Z,20.85
2019-06-27T19:26:12.059Z,20.48
2019-06-27T19:29:18.374Z,20.68
2019-06-27T19:32:25.090Z,20.54
2019-06-27T19:35:31.408Z,19.67
2019-06-27T19:38:37.857Z,20.31
2019-06-27T19:41:44.340Z,19.44
2019-06-27T19:44:50.681Z,19.19
2019-06-27T19:47:57.272Z,19.66
2019-06-27T19:51:04.347Z,20.04
2019-06-27T19:54:10.693Z,19.81
2019-06-27T19:57:17.194Z,19.10
2019-06-27T20:00:23.941Z,19.05
2019-06-27T20:03:30.696Z,18.85
2019-06-27T20:06:37.024Z,19.47
2019-06-27T20:09:43.612Z,19.32
2019-06-27T20:12:51.280Z,18.41
2019-06-27T20:15:58.275Z,19.29
2019-06-27T20:19:05.923Z,19.25
2019-06-27T20:22:12.961Z,18.85
2019-06-27T20:25:19.619Z,18.68
2019-06-27T20:28:26.046Z,17.96
2019-06-27T20:31:32.385Z,18.53
2019-06-27T20:34:39.557Z,18.66
2019-06-27T20:37:46.009Z,18.49
2019-06-27T20:40:52.744Z,18.61
2019-06-27T20:43:59.068Z,18.48
2019-06-27T20:47:05.755Z,17.20
2019-06-27T20:50:13.233Z,17.50
2019-06-27T20:53:19.588Z,18.07
2019-06-27T20:56:26.018Z,17.96
2019-06-27T20:59:32.572Z,17.67
2019-06-27T21:02:39.377Z,17.73
2019-06-27T21:05:46.057Z,16.73
2019-06-27T21:08:52.641Z,16.41
2019-06-27T21:11:59.022Z,17.08
2019-06-27T21:15:05.740Z,17.71
2019-06-27T21:18:12.472Z,17.23
2019-06-27T21:21:19.505Z,17.38
2019-06-27T21:24:26.467Z,16.80
2019-06-27T21:27:32.890Z,16.69
2019-06-27T21:30:39.361Z,16.55
2019-06-27T21:33:46.062Z,17.32
2019-06-27T21:36:53.680Z,17.11
2019-06-27T21:39:59.992Z,17.26
2019-06-27T21:43:06.604Z,17.09
2019-06-27T21:46:13.226Z,16.83
2019-06-27T21:49:19.557Z,16.99
2019-06-27T21:52:26.326Z,17.04
2019-06-27T21:55:32.709Z,16.77
2019-06-27T21:58:39.377Z,17.11
2019-06-27T22:01:45.872Z,16.53
2019-06-27T22:04:52.204Z,16.89
2019-06-27T22:07:58.898Z,16.85
2019-06-27T22:11:05.363Z,17.25
2019-06-27T22:14:11.758Z,17.32
2019-06-27T22:17:18.916Z,17.32
2019-06-27T22:20:25.345Z,16.52
2019-06-27T22:23:31.929Z,16.86
2019-06-27T22:26:39.373Z,16.20
2019-06-27T22:29:45.692Z,16.56
2019-06-27T22:32:52.097Z,16.87
2019-06-27T22:35:58.515Z,16.46
2019-06-27T22:39:36.254Z,16.71
2019-06-27T22:42:48.966Z,16.44
2019-06-27T22:46:13.436Z,16.87
2019-06-27T22:49:18.861Z,15.98
2019-06-27T22:52:53.258Z,16.04
2019-06-27T22:55:59.752Z,16.14
2019-06-27T22:59:06.215Z,15.56
2019-06-27T23:02:12.561Z,15.40
2019-06-27T23:05:19.374Z,15.52
2019-06-27T23:08:27.022Z,15.48
2019-06-27T23:11:33.443Z,15.53
2019-06-27T23:14:39.916Z,14.53
2019-06-27T23:17:46.361Z,14.32
2019-06-27T23:20:52.939Z,14.39
2019-06-27T23:23:59.281Z,14.82
2019-06-27T23:27:05.962Z,14.54
2019-06-27T23:30:13.226Z,14.37
2019-06-27T23:33:19.553Z,14.17
2019-06-27T23:36:25.905Z,14.23
2019-06-27T23:39:32.219Z,14.41
2019-06-27T23:42:38.723Z,14.51
2019-06-27T23:45:45.153Z,13.97
2019-06-27T23:48:54.544Z,14.32
2019-06-27T23:52:00.966Z,14.57
2019-06-27T23:55:07.875Z,14.07
2019-06-27T23:58:14.217Z,14.41
